sensor_id;sensor_type;location;lat;lon;timestamp;temperature;humidity
47961;DHT22;33721;48.852;9.936;2022-08-19T00:00:14;20.20;99.90
47961;DHT22;33721;48.852;9.936;2022-08-19T00:02:40;20.20;99.90
47961;DHT22;33721;48.852;9.936;2022-08-19T00:05:07;20.20;99.90
47961;DHT22;33721;48.852;9.936;2022-08-19T00:07:34;20.10;99.90
47961;DHT22;33721;48.852;9.936;2022-08-19T00:09:59;20.10;99.90
47961;DHT22;33721;48.852;9.936;2022-08-19T00:12:25;20.10;99.90
47961;DHT22;33721;48.852;9.936;2022-08-19T00:14:51;20.00;99.90
47961;DHT22;33721;48.852;9.936;2022-08-19T00:17:19;20.00;99.90
47961;DHT22;33721;48.852;9.936;2022-08-19T00:19:45;20.00;99.90
47961;DHT22;33721;48.852;9.936;2022-08-19T00:22:11;20.00;99.90
47961;DHT22;33721;48.852;9.936;2022-08-19T00:24:37;20.10;99.90
47961;DHT22;33721;48.852;9.936;2022-08-19T00:27:04;20.00;99.90
47961;DHT22;33721;48.852;9.936;2022-08-19T00:29:30;20.10;99.90
47961;DHT22;33721;48.852;9.936;2022-08-19T00:31:56;20.00;99.90
47961;DHT22;33721;48.852;9.936;2022-08-19T00:34:24;20.00;99.90
47961;DHT22;33721;48.852;9.936;2022-08-19T00:36:51;19.90;99.90
47961;DHT22;33721;48.852;9.936;2022-08-19T00:39:17;20.00;99.90
47961;DHT22;33721;48.852;9.936;2022-08-19T00:41:44;19.90;99.90
47961;DHT22;33721;48.852;9.936;2022-08-19T00:44:22;20.00;99.90
47961;DHT22;33721;48.852;9.936;2022-08-19T00:46:49;20.00;99.90
47961;DHT22;33721;48.852;9.936;2022-08-19T00:49:47;19.90;99.90
47961;DHT22;33721;48.852;9.936;2022-08-19T00:52:40;19.90;99.90
47961;DHT22;33721;48.852;9.936;2022-08-19T00:55:07;19.80;99.90
47961;DHT22;33721;48.852;9.936;2022-08-19T00:57:38;19.80;99.90
47961;DHT22;33721;48.852;9.936;2022-08-19T01:00:12;19.70;99.90
47961;DHT22;33721;48.852;9.936;2022-08-19T01:02:39;19.60;99.90
47961;DHT22;33721;48.852;9.936;2022-08-19T01:05:08;19.50;99.90
47961;DHT22;33721;48.852;9.936;2022-08-19T01:07:35;19.40;99.90
47961;DHT22;33721;48.852;9.936;2022-08-19T01:10:05;19.30;99.90
47961;DHT22;33721;48.852;9.936;2022-08-19T01:12:31;19.30;99.90
47961;DHT22;33721;48.852;9.936;2022-08-19T01:14:59;19.30;99.90
47961;DHT22;33721;48.852;9.936;2022-08-19T01:17:25;19.30;99.90
47961;DHT22;33721;48.852;9.936;2022-08-19T01:19:50;19.30;99.90
47961;DHT22;33721;48.852;9.936;2022-08-19T01:22:28;19.30;99.90
47961;DHT22;33721;48.852;9.936;2022-08-19T01:24:55;19.30;99.90
47961;DHT22;33721;48.852;9.936;2022-08-19T01:27:22;19.20;99.90
47961;DHT22;33721;48.852;9.936;2022-08-19T01:29:47;19.20;99.90
47961;DHT22;33721;48.852;9.936;2022-08-19T01:32:16;19.20;99.90
47961;DHT22;33721;48.852;9.936;2022-08-19T01:34:42;19.10;99.90
47961;DHT22;33721;48.852;9.936;2022-08-19T01:37:14;19.10;99.90
47961;DHT22;33721;48.852;9.936;2022-08-19T01:39:40;19.10;99.90
47961;DHT22;33721;48.852;9.936;2022-08-19T01:42:07;19.10;99.90
47961;DHT22;33721;48.852;9.936;2022-08-19T01:44:37;19.10;99.90
47961;DHT22;33721;48.852;9.936;2022-08-19T01:47:03;19.10;99.90
47961;DHT22;33721;48.852;9.936;2022-08-19T01:49:29;19.10;99.90
47961;DHT22;33721;48.852;9.936;2022-08-19T01:51:55;19.20;99.90
47961;DHT22;33721;48.852;9.936;2022-08-19T01:54:23;19.20;99.90
47961;DHT22;33721;48.852;9.936;2022-08-19T01:56:51;19.20;99.90
47961;DHT22;33721;48.852;9.936;2022-08-19T01:59:20;19.20;99.90
47961;DHT22;33721;48.852;9.936;2022-08-19T02:01:47;19.20;99.90
47961;DHT22;33721;48.852;9.936;2022-08-19T02:04:12;19.10;99.90
47961;DHT22;33721;48.852;9.936;2022-08-19T02:06:39;19.00;99.90
47961;DHT22;33721;48.852;9.936;2022-08-19T02:09:06;19.00;99.90
47961;DHT22;33721;48.852;9.936;2022-08-19T02:11:34;18.90;99.90
47961;DHT22;33721;48.852;9.936;2022-08-19T02:14:03;19.00;99.90
47961;DHT22;33721;48.852;9.936;2022-08-19T02:16:29;18.90;99.90
47961;DHT22;33721;48.852;9.936;2022-08-19T02:18:56;18.80;99.90
47961;DHT22;33721;48.852;9.936;2022-08-19T02:21:23;18.80;99.90
47961;DHT22;33721;48.852;9.936;2022-08-19T02:23:49;18.70;99.90
47961;DHT22;33721;48.852;9.936;2022-08-19T02:26:15;18.70;99.90
47961;DHT22;33721;48.852;9.936;2022-08-19T02:28:41;18.70;99.90
47961;DHT22;33721;48.852;9.936;2022-08-19T02:31:16;18.70;99.90
47961;DHT22;33721;48.852;9.936;2022-08-19T02:33:43;18.70;99.90
47961;DHT22;33721;48.852;9.936;2022-08-19T02:36:11;18.70;99.90
47961;DHT22;33721;48.852;9.936;2022-08-19T02:38:37;18.70;99.90
47961;DHT22;33721;48.852;9.936;2022-08-19T02:41:07;18.70;99.90
47961;DHT22;33721;48.852;9.936;2022-08-19T02:43:35;18.70;99.90
47961;DHT22;33721;48.852;9.936;2022-08-19T02:46:19;18.70;99.90
47961;DHT22;33721;48.852;9.936;2022-08-19T02:48:50;18.80;99.90
47961;DHT22;33721;48.852;9.936;2022-08-19T02:51:26;18.80;99.90
47961;DHT22;33721;48.852;9.936;2022-08-19T02:53:53;18.90;99.90
47961;DHT22;33721;48.852;9.936;2022-08-19T02:56:19;18.90;99.90
47961;DHT22;33721;48.852;9.936;2022-08-19T02:58:46;19.00;99.90
47961;DHT22;33721;48.852;9.936;2022-08-19T03:01:24;18.90;99.90
47961;DHT22;33721;48.852;9.936;2022-08-19T03:03:50;19.00;99.90
47961;DHT22;33721;48.852;9.936;2022-08-19T03:06:17;19.00;99.90
47961;DHT22;33721;48.852;9.936;2022-08-19T03:08:44;19.00;99.90
47961;DHT22;33721;48.852;9.936;2022-08-19T03:13:45;18.90;99.90
47961;DHT22;33721;48.852;9.936;2022-08-19T03:16:12;18.90;99.90
47961;DHT22;33721;48.852;9.936;2022-08-19T03:18:38;18.90;99.90
47961;DHT22;33721;48.852;9.936;2022-08-19T03:21:04;18.90;99.90
47961;DHT22;33721;48.852;9.936;2022-08-19T03:23:30;18.90;99.90
47961;DHT22;33721;48.852;9.936;2022-08-19T03:25:56;18.80;99.90
47961;DHT22;33721;48.852;9.936;2022-08-19T03:28:21;18.80;99.90
47961;DHT22;33721;48.852;9.936;2022-08-19T03:31:02;18.80;99.90
47961;DHT22;33721;48.852;9.936;2022-08-19T03:33:28;18.80;99.90
47961;DHT22;33721;48.852;9.936;2022-08-19T03:36:11;18.80;99.90
47961;DHT22;33721;48.852;9.936;2022-08-19T03:38:39;18.70;99.90
47961;DHT22;33721;48.852;9.936;2022-08-19T03:41:07;18.60;99.90
47961;DHT22;33721;48.852;9.936;2022-08-19T03:43:38;18.60;99.90
47961;DHT22;33721;48.852;9.936;2022-08-19T03:46:12;18.50;99.90
47961;DHT22;33721;48.852;9.936;2022-08-19T03:48:40;18.50;99.90
47961;DHT22;33721;48.852;9.936;2022-08-19T03:51:07;18.40;99.90
47961;DHT22;33721;48.852;9.936;2022-08-19T03:53:34;18.40;99.90
47961;DHT22;33721;48.852;9.936;2022-08-19T03:56:00;18.50;99.90
47961;DHT22;33721;48.852;9.936;2022-08-19T03:58:29;18.50;99.90
47961;DHT22;33721;48.852;9.936;2022-08-19T04:00:58;18.50;99.90
47961;DHT22;33721;48.852;9.936;2022-08-19T04:03:25;18.50;99.90
47961;DHT22;33721;48.852;9.936;2022-08-19T04:05:52;18.50;99.90
47961;DHT22;33721;48.852;9.936;2022-08-19T04:08:19;18.50;99.90
47961;DHT22;33721;48.852;9.936;2022-08-19T04:10:47;18.50;99.90
47961;DHT22;33721;48.852;9.936;2022-08-19T04:13:14;18.40;99.90
47961;DHT22;33721;48.852;9.936;2022-08-19T04:15:42;18.40;99.90
47961;DHT22;33721;48.852;9.936;2022-08-19T04:18:09;18.30;99.90
47961;DHT22;33721;48.852;9.936;2022-08-19T04:20:44;18.30;99.90
47961;DHT22;33721;48.852;9.936;2022-08-19T04:23:11;18.30;99.90
47961;DHT22;33721;48.852;9.936;2022-08-19T04:25:39;18.30;99.90
47961;DHT22;33721;48.852;9.936;2022-08-19T04:28:05;18.30;99.90
47961;DHT22;33721;48.852;9.936;2022-08-19T04:30:31;18.30;99.90
47961;DHT22;33721;48.852;9.936;2022-08-19T04:33:02;18.20;99.90
47961;DHT22;33721;48.852;9.936;2022-08-19T04:35:27;18.20;99.90
47961;DHT22;33721;48.852;9.936;2022-08-19T04:37:53;18.20;99.90
47961;DHT22;33721;48.852;9.936;2022-08-19T04:40:18;18.20;99.90
47961;DHT22;33721;48.852;9.936;2022-08-19T04:43:03;18.20;99.90
47961;DHT22;33721;48.852;9.936;2022-08-19T04:45:28;18.30;99.90
47961;DHT22;33721;48.852;9.936;2022-08-19T04:47:55;18.30;99.90
47961;DHT22;33721;48.852;9.936;2022-08-19T04:50:22;18.30;99.90
47961;DHT22;33721;48.852;9.936;2022-08-19T04:52:50;18.20;99.90
47961;DHT22;33721;48.852;9.936;2022-08-19T04:55:16;18.20;99.90
47961;DHT22;33721;48.852;9.936;2022-08-19T04:57:43;18.20;99.90
47961;DHT22;33721;48.852;9.936;2022-08-19T05:00:10;18.20;99.90
47961;DHT22;33721;48.852;9.936;2022-08-19T05:02:37;18.20;99.90
47961;DHT22;33721;48.852;9.936;2022-08-19T05:05:03;18.20;99.90
47961;DHT22;33721;48.852;9.936;2022-08-19T05:07:29;18.20;99.90
47961;DHT22;33721;48.852;9.936;2022-08-19T05:09:55;18.30;99.90
47961;DHT22;33721;48.852;9.936;2022-08-19T05:12:20;18.30;99.90
47961;DHT22;33721;48.852;9.936;2022-08-19T05:14:46;18.30;99.90
47961;DHT22;33721;48.852;9.936;2022-08-19T05:17:13;18.30;99.90
47961;DHT22;33721;48.852;9.936;2022-08-19T05:19:39;18.30;99.90
47961;DHT22;33721;48.852;9.936;2022-08-19T05:22:23;18.30;99.90
47961;DHT22;33721;48.852;9.936;2022-08-19T05:24:58;18.30;99.90
47961;DHT22;33721;48.852;9.936;2022-08-19T05:27:24;18.20;99.90
47961;DHT22;33721;48.852;9.936;2022-08-19T05:29:50;18.30;99.90
47961;DHT22;33721;48.852;9.936;2022-08-19T05:32:15;18.30;99.90
47961;DHT22;33721;48.852;9.936;2022-08-19T05:34:41;18.40;99.90
47961;DHT22;33721;48.852;9.936;2022-08-19T05:37:08;18.40;99.90
47961;DHT22;33721;48.852;9.936;2022-08-19T05:39:35;18.50;99.90
47961;DHT22;33721;48.852;9.936;2022-08-19T05:42:04;18.50;99.90
47961;DHT22;33721;48.852;9.936;2022-08-19T05:44:32;18.50;99.90
47961;DHT22;33721;48.852;9.936;2022-08-19T05:47:00;18.50;99.90
47961;DHT22;33721;48.852;9.936;2022-08-19T05:49:27;18.50;99.90
47961;DHT22;33721;48.852;9.936;2022-08-19T05:51:53;18.60;99.90
47961;DHT22;33721;48.852;9.936;2022-08-19T05:54:21;18.60;99.90
47961;DHT22;33721;48.852;9.936;2022-08-19T05:56:49;18.60;99.90
47961;DHT22;33721;48.852;9.936;2022-08-19T05:59:16;18.60;99.90
47961;DHT22;33721;48.852;9.936;2022-08-19T06:01:44;18.60;99.90
47961;DHT22;33721;48.852;9.936;2022-08-19T06:04:11;18.60;99.90
47961;DHT22;33721;48.852;9.936;2022-08-19T06:06:39;18.50;99.90
47961;DHT22;33721;48.852;9.936;2022-08-19T06:09:06;18.50;99.90
47961;DHT22;33721;48.852;9.936;2022-08-19T06:11:40;18.50;99.90
47961;DHT22;33721;48.852;9.936;2022-08-19T06:14:17;18.60;99.90
47961;DHT22;33721;48.852;9.936;2022-08-19T06:16:44;18.60;99.90
47961;DHT22;33721;48.852;9.936;2022-08-19T06:19:13;18.60;99.90
47961;DHT22;33721;48.852;9.936;2022-08-19T06:21:40;18.60;99.90
47961;DHT22;33721;48.852;9.936;2022-08-19T06:24:10;18.60;99.90
47961;DHT22;33721;48.852;9.936;2022-08-19T06:26:39;18.70;99.90
47961;DHT22;33721;48.852;9.936;2022-08-19T06:29:05;18.70;99.90
47961;DHT22;33721;48.852;9.936;2022-08-19T06:31:34;18.70;99.90
47961;DHT22;33721;48.852;9.936;2022-08-19T06:34:04;18.70;99.90
47961;DHT22;33721;48.852;9.936;2022-08-19T06:36:34;18.70;99.90
47961;DHT22;33721;48.852;9.936;2022-08-19T06:39:05;18.70;99.90
47961;DHT22;33721;48.852;9.936;2022-08-19T06:41:35;18.70;99.90
47961;DHT22;33721;48.852;9.936;2022-08-19T06:44:01;18.70;99.90
47961;DHT22;33721;48.852;9.936;2022-08-19T06:46:26;18.70;99.90
47961;DHT22;33721;48.852;9.936;2022-08-19T06:48:52;18.70;99.90
47961;DHT22;33721;48.852;9.936;2022-08-19T06:51:20;18.70;99.90
47961;DHT22;33721;48.852;9.936;2022-08-19T06:53:50;18.70;99.90
47961;DHT22;33721;48.852;9.936;2022-08-19T06:56:18;18.70;99.90
47961;DHT22;33721;48.852;9.936;2022-08-19T06:58:46;18.70;99.90
47961;DHT22;33721;48.852;9.936;2022-08-19T07:01:13;18.70;99.90
47961;DHT22;33721;48.852;9.936;2022-08-19T07:03:39;18.70;99.90
47961;DHT22;33721;48.852;9.936;2022-08-19T07:06:07;18.70;99.90
47961;DHT22;33721;48.852;9.936;2022-08-19T07:08:33;18.70;99.90
47961;DHT22;33721;48.852;9.936;2022-08-19T07:11:01;18.70;99.90
47961;DHT22;33721;48.852;9.936;2022-08-19T07:13:26;18.70;99.90
47961;DHT22;33721;48.852;9.936;2022-08-19T07:15:52;18.70;99.90
47961;DHT22;33721;48.852;9.936;2022-08-19T07:18:19;18.70;99.90
47961;DHT22;33721;48.852;9.936;2022-08-19T07:20:46;18.60;99.90
47961;DHT22;33721;48.852;9.936;2022-08-19T07:23:12;18.60;99.90
47961;DHT22;33721;48.852;9.936;2022-08-19T07:25:38;18.70;99.90
47961;DHT22;33721;48.852;9.936;2022-08-19T07:28:04;18.60;99.90
47961;DHT22;33721;48.852;9.936;2022-08-19T07:30:30;18.60;99.90
47961;DHT22;33721;48.852;9.936;2022-08-19T07:32:56;18.70;99.90
47961;DHT22;33721;48.852;9.936;2022-08-19T07:35:22;18.70;99.90
47961;DHT22;33721;48.852;9.936;2022-08-19T07:37:49;18.70;99.90
47961;DHT22;33721;48.852;9.936;2022-08-19T07:40:15;18.70;99.90
47961;DHT22;33721;48.852;9.936;2022-08-19T07:42:41;18.70;99.90
47961;DHT22;33721;48.852;9.936;2022-08-19T07:45:08;18.70;99.90
47961;DHT22;33721;48.852;9.936;2022-08-19T07:47:33;18.70;99.90
47961;DHT22;33721;48.852;9.936;2022-08-19T07:49:59;18.70;99.90
47961;DHT22;33721;48.852;9.936;2022-08-19T07:52:25;18.80;99.90
47961;DHT22;33721;48.852;9.936;2022-08-19T07:54:50;18.80;99.90
47961;DHT22;33721;48.852;9.936;2022-08-19T07:57:16;18.80;99.90
47961;DHT22;33721;48.852;9.936;2022-08-19T07:59:44;18.80;99.90
47961;DHT22;33721;48.852;9.936;2022-08-19T08:02:10;18.80;99.90
47961;DHT22;33721;48.852;9.936;2022-08-19T08:04:35;18.80;99.90
47961;DHT22;33721;48.852;9.936;2022-08-19T08:07:20;18.90;99.90
47961;DHT22;33721;48.852;9.936;2022-08-19T08:10:06;18.90;99.90
47961;DHT22;33721;48.852;9.936;2022-08-19T08:12:38;18.90;99.90
47961;DHT22;33721;48.852;9.936;2022-08-19T08:15:14;19.00;99.90
47961;DHT22;33721;48.852;9.936;2022-08-19T08:17:42;19.00;99.90
47961;DHT22;33721;48.852;9.936;2022-08-19T08:20:08;19.00;99.90
47961;DHT22;33721;48.852;9.936;2022-08-19T08:22:34;19.00;99.90
47961;DHT22;33721;48.852;9.936;2022-08-19T08:25:22;19.10;99.90
47961;DHT22;33721;48.852;9.936;2022-08-19T08:27:48;19.10;99.90
47961;DHT22;33721;48.852;9.936;2022-08-19T08:30:22;19.20;99.90
47961;DHT22;33721;48.852;9.936;2022-08-19T08:32:50;19.10;99.90
47961;DHT22;33721;48.852;9.936;2022-08-19T08:35:19;19.20;99.90
47961;DHT22;33721;48.852;9.936;2022-08-19T08:37:46;19.30;99.90
47961;DHT22;33721;48.852;9.936;2022-08-19T08:43:29;19.40;99.90
47961;DHT22;33721;48.852;9.936;2022-08-19T08:46:07;19.40;99.90
47961;DHT22;33721;48.852;9.936;2022-08-19T08:48:39;19.50;99.90
47961;DHT22;33721;48.852;9.936;2022-08-19T08:51:11;19.50;99.90
47961;DHT22;33721;48.852;9.936;2022-08-19T08:53:39;19.60;99.90
47961;DHT22;33721;48.852;9.936;2022-08-19T08:56:06;19.60;99.90
47961;DHT22;33721;48.852;9.936;2022-08-19T08:59:03;19.70;99.90
47961;DHT22;33721;48.852;9.936;2022-08-19T09:01:32;19.70;99.90
47961;DHT22;33721;48.852;9.936;2022-08-19T09:03:58;19.70;99.90
47961;DHT22;33721;48.852;9.936;2022-08-19T09:12:03;19.80;99.90
47961;DHT22;33721;48.852;9.936;2022-08-19T09:17:08;19.70;99.90
47961;DHT22;33721;48.852;9.936;2022-08-19T09:19:46;19.70;99.90
47961;DHT22;33721;48.852;9.936;2022-08-19T09:22:13;19.60;99.90
47961;DHT22;33721;48.852;9.936;2022-08-19T09:24:39;19.70;99.90
47961;DHT22;33721;48.852;9.936;2022-08-19T09:27:05;19.60;99.90
47961;DHT22;33721;48.852;9.936;2022-08-19T09:29:30;19.60;99.90
47961;DHT22;33721;48.852;9.936;2022-08-19T09:31:56;19.60;99.90
47961;DHT22;33721;48.852;9.936;2022-08-19T09:34:22;19.60;99.90
47961;DHT22;33721;48.852;9.936;2022-08-19T09:36:48;19.70;99.90
47961;DHT22;33721;48.852;9.936;2022-08-19T09:39:18;19.70;99.90
47961;DHT22;33721;48.852;9.936;2022-08-19T09:41:44;19.50;99.90
47961;DHT22;33721;48.852;9.936;2022-08-19T09:44:09;19.50;99.90
47961;DHT22;33721;48.852;9.936;2022-08-19T09:46:37;19.60;99.90
47961;DHT22;33721;48.852;9.936;2022-08-19T09:49:03;19.70;99.90
47961;DHT22;33721;48.852;9.936;2022-08-19T09:51:31;19.70;99.90
47961;DHT22;33721;48.852;9.936;2022-08-19T09:54:02;19.70;99.90
47961;DHT22;33721;48.852;9.936;2022-08-19T09:56:28;19.70;99.90
47961;DHT22;33721;48.852;9.936;2022-08-19T09:58:57;19.70;99.90
47961;DHT22;33721;48.852;9.936;2022-08-19T10:01:25;19.60;99.90
47961;DHT22;33721;48.852;9.936;2022-08-19T10:03:54;19.60;99.90
47961;DHT22;33721;48.852;9.936;2022-08-19T10:06:22;19.60;99.90
47961;DHT22;33721;48.852;9.936;2022-08-19T10:08:49;19.60;99.90
47961;DHT22;33721;48.852;9.936;2022-08-19T10:11:15;19.60;99.90
47961;DHT22;33721;48.852;9.936;2022-08-19T10:13:43;19.70;99.90
47961;DHT22;33721;48.852;9.936;2022-08-19T10:16:13;19.70;99.90
47961;DHT22;33721;48.852;9.936;2022-08-19T10:18:39;19.70;99.90
47961;DHT22;33721;48.852;9.936;2022-08-19T10:21:19;19.70;99.90
47961;DHT22;33721;48.852;9.936;2022-08-19T10:23:50;19.80;99.90
47961;DHT22;33721;48.852;9.936;2022-08-19T10:26:26;19.90;99.90
47961;DHT22;33721;48.852;9.936;2022-08-19T10:28:52;19.90;99.90
47961;DHT22;33721;48.852;9.936;2022-08-19T10:31:23;19.80;99.90
47961;DHT22;33721;48.852;9.936;2022-08-19T10:33:50;19.80;99.90
47961;DHT22;33721;48.852;9.936;2022-08-19T10:36:21;19.70;99.90
47961;DHT22;33721;48.852;9.936;2022-08-19T10:38:50;19.60;99.90
47961;DHT22;33721;48.852;9.936;2022-08-19T10:41:22;19.50;99.90
47961;DHT22;33721;48.852;9.936;2022-08-19T10:43:53;19.50;99.90
47961;DHT22;33721;48.852;9.936;2022-08-19T10:46:21;19.50;99.90
47961;DHT22;33721;48.852;9.936;2022-08-19T10:48:47;19.50;99.90
47961;DHT22;33721;48.852;9.936;2022-08-19T10:51:13;19.60;99.90
47961;DHT22;33721;48.852;9.936;2022-08-19T10:53:58;19.60;99.90
47961;DHT22;33721;48.852;9.936;2022-08-19T10:56:25;19.60;99.90
47961;DHT22;33721;48.852;9.936;2022-08-19T10:59:09;19.60;99.90
47961;DHT22;33721;48.852;9.936;2022-08-19T11:01:35;19.60;99.90
47961;DHT22;33721;48.852;9.936;2022-08-19T11:04:03;19.60;99.90
47961;DHT22;33721;48.852;9.936;2022-08-19T11:06:30;19.60;99.90
47961;DHT22;33721;48.852;9.936;2022-08-19T11:08:57;19.60;99.90
47961;DHT22;33721;48.852;9.936;2022-08-19T11:11:23;19.60;99.90
47961;DHT22;33721;48.852;9.936;2022-08-19T11:13:49;19.60;99.90
47961;DHT22;33721;48.852;9.936;2022-08-19T11:16:23;19.60;99.90
47961;DHT22;33721;48.852;9.936;2022-08-19T11:18:54;19.60;99.90
47961;DHT22;33721;48.852;9.936;2022-08-19T11:21:34;19.40;99.90
47961;DHT22;33721;48.852;9.936;2022-08-19T11:24:02;19.40;99.90
47961;DHT22;33721;48.852;9.936;2022-08-19T11:26:29;19.30;99.90
47961;DHT22;33721;48.852;9.936;2022-08-19T11:28:57;19.20;99.90
47961;DHT22;33721;48.852;9.936;2022-08-19T11:31:25;19.10;99.90
47961;DHT22;33721;48.852;9.936;2022-08-19T11:33:51;19.00;99.90
47961;DHT22;33721;48.852;9.936;2022-08-19T11:36:20;18.90;99.90
47961;DHT22;33721;48.852;9.936;2022-08-19T11:38:47;18.80;99.90
47961;DHT22;33721;48.852;9.936;2022-08-19T11:41:14;18.80;99.90
47961;DHT22;33721;48.852;9.936;2022-08-19T11:43:40;18.80;99.90
47961;DHT22;33721;48.852;9.936;2022-08-19T11:46:12;18.70;99.90
47961;DHT22;33721;48.852;9.936;2022-08-19T11:48:39;18.70;99.90
47961;DHT22;33721;48.852;9.936;2022-08-19T11:51:08;18.60;99.90
47961;DHT22;33721;48.852;9.936;2022-08-19T11:53:35;18.60;99.90
47961;DHT22;33721;48.852;9.936;2022-08-19T11:56:01;18.60;99.90
47961;DHT22;33721;48.852;9.936;2022-08-19T11:58:27;18.40;99.90
47961;DHT22;33721;48.852;9.936;2022-08-19T12:00:54;18.30;99.90
47961;DHT22;33721;48.852;9.936;2022-08-19T12:03:20;18.30;99.90
47961;DHT22;33721;48.852;9.936;2022-08-19T12:05:46;18.20;99.90
47961;DHT22;33721;48.852;9.936;2022-08-19T12:08:12;18.20;99.90
47961;DHT22;33721;48.852;9.936;2022-08-19T12:10:41;18.20;99.90
47961;DHT22;33721;48.852;9.936;2022-08-19T12:13:08;18.20;99.90
47961;DHT22;33721;48.852;9.936;2022-08-19T12:15:39;18.20;99.90
47961;DHT22;33721;48.852;9.936;2022-08-19T12:18:07;18.20;99.90
47961;DHT22;33721;48.852;9.936;2022-08-19T12:20:36;18.20;99.90
47961;DHT22;33721;48.852;9.936;2022-08-19T12:23:03;18.20;99.90
47961;DHT22;33721;48.852;9.936;2022-08-19T12:25:29;18.20;99.90
47961;DHT22;33721;48.852;9.936;2022-08-19T12:27:56;18.20;99.90
47961;DHT22;33721;48.852;9.936;2022-08-19T12:30:22;18.20;99.90
47961;DHT22;33721;48.852;9.936;2022-08-19T12:32:48;18.20;99.90
47961;DHT22;33721;48.852;9.936;2022-08-19T12:35:14;18.20;99.90
47961;DHT22;33721;48.852;9.936;2022-08-19T12:37:40;18.20;99.90
47961;DHT22;33721;48.852;9.936;2022-08-19T12:40:08;18.30;99.90
47961;DHT22;33721;48.852;9.936;2022-08-19T12:42:34;18.30;99.90
47961;DHT22;33721;48.852;9.936;2022-08-19T12:45:00;18.30;99.90
47961;DHT22;33721;48.852;9.936;2022-08-19T12:47:26;18.40;99.90
47961;DHT22;33721;48.852;9.936;2022-08-19T12:49:52;18.30;99.90
47961;DHT22;33721;48.852;9.936;2022-08-19T12:52:17;18.40;99.90
47961;DHT22;33721;48.852;9.936;2022-08-19T12:54:46;18.30;99.90
47961;DHT22;33721;48.852;9.936;2022-08-19T12:57:12;18.20;99.90
47961;DHT22;33721;48.852;9.936;2022-08-19T12:59:38;18.10;99.90
47961;DHT22;33721;48.852;9.936;2022-08-19T13:02:05;18.10;99.90
47961;DHT22;33721;48.852;9.936;2022-08-19T13:04:32;18.10;99.90
47961;DHT22;33721;48.852;9.936;2022-08-19T13:07:00;18.10;99.90
47961;DHT22;33721;48.852;9.936;2022-08-19T13:09:26;18.10;99.90
47961;DHT22;33721;48.852;9.936;2022-08-19T13:11:51;18.10;99.90
47961;DHT22;33721;48.852;9.936;2022-08-19T13:14:17;18.10;99.90
47961;DHT22;33721;48.852;9.936;2022-08-19T13:16:44;18.10;99.90
47961;DHT22;33721;48.852;9.936;2022-08-19T13:19:09;18.20;99.90
47961;DHT22;33721;48.852;9.936;2022-08-19T13:21:36;18.20;99.90
47961;DHT22;33721;48.852;9.936;2022-08-19T13:24:02;18.20;99.90
47961;DHT22;33721;48.852;9.936;2022-08-19T13:26:27;18.30;99.90
47961;DHT22;33721;48.852;9.936;2022-08-19T13:28:53;18.30;99.90
47961;DHT22;33721;48.852;9.936;2022-08-19T13:31:40;18.30;99.90
47961;DHT22;33721;48.852;9.936;2022-08-19T13:34:31;18.30;99.90
47961;DHT22;33721;48.852;9.936;2022-08-19T13:36:59;18.30;99.90
47961;DHT22;33721;48.852;9.936;2022-08-19T13:39:28;18.30;99.90
47961;DHT22;33721;48.852;9.936;2022-08-19T13:41:54;18.20;99.90
47961;DHT22;33721;48.852;9.936;2022-08-19T13:44:21;18.20;99.90
47961;DHT22;33721;48.852;9.936;2022-08-19T13:46:47;18.20;99.90
47961;DHT22;33721;48.852;9.936;2022-08-19T13:49:14;18.20;99.90
47961;DHT22;33721;48.852;9.936;2022-08-19T13:51:41;18.20;99.90
47961;DHT22;33721;48.852;9.936;2022-08-19T13:54:08;18.20;99.90
47961;DHT22;33721;48.852;9.936;2022-08-19T13:56:43;18.20;99.90
47961;DHT22;33721;48.852;9.936;2022-08-19T13:59:09;18.20;99.90
47961;DHT22;33721;48.852;9.936;2022-08-19T14:01:35;18.10;99.90
47961;DHT22;33721;48.852;9.936;2022-08-19T14:04:02;18.10;99.90
47961;DHT22;33721;48.852;9.936;2022-08-19T14:06:28;18.10;99.90
47961;DHT22;33721;48.852;9.936;2022-08-19T14:08:53;18.10;99.90
47961;DHT22;33721;48.852;9.936;2022-08-19T14:11:19;18.10;99.90
47961;DHT22;33721;48.852;9.936;2022-08-19T14:13:45;18.10;99.90
47961;DHT22;33721;48.852;9.936;2022-08-19T14:16:12;18.10;99.90
47961;DHT22;33721;48.852;9.936;2022-08-19T14:18:39;18.10;99.90
47961;DHT22;33721;48.852;9.936;2022-08-19T14:21:05;18.20;99.90
47961;DHT22;33721;48.852;9.936;2022-08-19T14:23:32;18.10;99.90
47961;DHT22;33721;48.852;9.936;2022-08-19T14:26:06;18.20;99.90
47961;DHT22;33721;48.852;9.936;2022-08-19T14:28:32;18.20;99.90
47961;DHT22;33721;48.852;9.936;2022-08-19T14:30:58;18.20;99.90
47961;DHT22;33721;48.852;9.936;2022-08-19T14:33:23;18.20;99.90
47961;DHT22;33721;48.852;9.936;2022-08-19T14:35:49;18.20;99.90
47961;DHT22;33721;48.852;9.936;2022-08-19T14:38:17;18.20;99.90
47961;DHT22;33721;48.852;9.936;2022-08-19T14:40:44;18.20;99.90
47961;DHT22;33721;48.852;9.936;2022-08-19T14:43:10;18.20;99.90
47961;DHT22;33721;48.852;9.936;2022-08-19T14:45:37;18.20;99.90
47961;DHT22;33721;48.852;9.936;2022-08-19T14:48:05;18.20;99.90
47961;DHT22;33721;48.852;9.936;2022-08-19T14:50:31;18.30;99.90
47961;DHT22;33721;48.852;9.936;2022-08-19T14:53:03;18.30;99.90
47961;DHT22;33721;48.852;9.936;2022-08-19T14:55:30;18.30;99.90
47961;DHT22;33721;48.852;9.936;2022-08-19T14:57:56;18.20;99.90
47961;DHT22;33721;48.852;9.936;2022-08-19T15:00:22;18.30;99.90
47961;DHT22;33721;48.852;9.936;2022-08-19T15:02:49;18.30;99.90
47961;DHT22;33721;48.852;9.936;2022-08-19T15:05:15;18.30;99.90
47961;DHT22;33721;48.852;9.936;2022-08-19T15:07:42;18.30;99.90
47961;DHT22;33721;48.852;9.936;2022-08-19T15:10:09;18.30;99.90
47961;DHT22;33721;48.852;9.936;2022-08-19T15:12:36;18.30;99.90
47961;DHT22;33721;48.852;9.936;2022-08-19T15:15:04;18.30;99.90
47961;DHT22;33721;48.852;9.936;2022-08-19T15:17:30;18.30;99.90
47961;DHT22;33721;48.852;9.936;2022-08-19T15:19:56;18.30;99.90
47961;DHT22;33721;48.852;9.936;2022-08-19T15:22:21;18.30;99.90
47961;DHT22;33721;48.852;9.936;2022-08-19T15:24:47;18.30;99.90
47961;DHT22;33721;48.852;9.936;2022-08-19T15:27:13;18.30;99.90
47961;DHT22;33721;48.852;9.936;2022-08-19T15:29:39;18.30;99.90
47961;DHT22;33721;48.852;9.936;2022-08-19T15:32:07;18.30;99.90
47961;DHT22;33721;48.852;9.936;2022-08-19T15:34:33;18.30;99.90
47961;DHT22;33721;48.852;9.936;2022-08-19T15:36:59;18.30;99.90
47961;DHT22;33721;48.852;9.936;2022-08-19T15:39:25;18.30;99.90
47961;DHT22;33721;48.852;9.936;2022-08-19T15:41:51;18.30;99.90
47961;DHT22;33721;48.852;9.936;2022-08-19T15:44:18;18.30;99.90
47961;DHT22;33721;48.852;9.936;2022-08-19T15:46:46;18.30;99.90
47961;DHT22;33721;48.852;9.936;2022-08-19T15:49:15;18.20;99.90